createdAt,value
2023-05-14T00:00:22.993Z,98.00
2023-05-14T00:01:22.757Z,97.44
2023-05-14T00:02:23.704Z,97.44
2023-05-14T00:03:22.781Z,97.64
2023-05-14T00:04:22.715Z,98.05
2023-05-14T00:05:22.649Z,98.16
2023-05-14T00:06:22.704Z,97.64
2023-05-14T00:07:22.662Z,97.23
2023-05-14T00:08:22.616Z,98.20
2023-05-14T00:09:22.627Z,97.58
2023-05-14T00:10:22.782Z,97.79
2023-05-14T00:11:22.671Z,97.58
2023-05-14T00:12:22.583Z,97.89
2023-05-14T00:13:22.647Z,97.94
2023-05-14T00:14:22.560Z,98.35
2023-05-14T00:15:22.552Z,98.14
2023-05-14T00:16:22.592Z,98.35
2023-05-14T00:17:22.602Z,98.25
2023-05-14T00:18:22.589Z,98.55
2023-05-14T00:19:22.530Z,98.04
2023-05-14T00:20:22.893Z,98.96
2023-05-14T00:21:22.520Z,99.38
2023-05-14T00:22:23.348Z,99.33
2023-05-14T00:23:22.520Z,99.63
2023-05-14T00:24:22.525Z,99.38
2023-05-14T00:25:22.500Z,99.22
2023-05-14T00:26:22.480Z,99.22
2023-05-14T00:27:22.508Z,98.96
2023-05-14T00:28:22.488Z,99.27
2023-05-14T00:29:22.466Z,99.38
2023-05-14T00:30:22.589Z,98.86
2023-05-14T00:31:23.439Z,99.17
2023-05-14T00:32:22.433Z,98.86
2023-05-14T00:33:22.486Z,98.80
2023-05-14T00:34:22.425Z,99.11
2023-05-14T00:35:22.432Z,99.11
2023-05-14T00:36:22.433Z,98.70
2023-05-14T00:37:22.412Z,99.21
2023-05-14T00:38:22.423Z,99.52
2023-05-14T00:39:23.421Z,99.32
2023-05-14T00:40:22.736Z,99.32
2023-05-14T00:41:22.372Z,99.42
2023-05-14T00:42:22.370Z,99.57
2023-05-14T00:43:22.364Z,99.16
2023-05-14T00:44:23.340Z,99.77
2023-05-14T00:45:22.360Z,99.99
2023-05-14T00:46:22.353Z,99.99
2023-05-14T00:47:22.351Z,99.99
2023-05-14T00:48:22.322Z,99.99
2023-05-14T00:49:22.340Z,99.99
2023-05-14T00:50:22.514Z,99.99
2023-05-14T00:51:22.309Z,99.99
2023-05-14T00:52:22.314Z,99.99
2023-05-14T00:53:22.275Z,99.99
2023-05-14T00:54:22.260Z,99.99
2023-05-14T00:55:22.270Z,99.98
2023-05-14T00:56:22.361Z,99.99
2023-05-14T00:57:22.241Z,99.99
2023-05-14T00:58:22.236Z,99.99
2023-05-14T00:59:22.250Z,99.99
2023-05-14T01:00:22.367Z,99.99
2023-05-14T01:01:22.313Z,99.99
2023-05-14T01:02:22.344Z,99.99
2023-05-14T01:03:22.290Z,99.99
2023-05-14T01:04:22.225Z,99.99
2023-05-14T01:05:22.190Z,99.99
2023-05-14T01:06:22.247Z,99.99
2023-05-14T01:07:22.175Z,99.99
2023-05-14T01:08:22.158Z,99.99
2023-05-14T01:09:22.211Z,99.99
2023-05-14T01:10:22.349Z,99.99
2023-05-14T01:11:22.180Z,99.99
2023-05-14T01:12:22.162Z,99.99
2023-05-14T01:13:22.104Z,99.99
2023-05-14T01:14:22.170Z,99.99
2023-05-14T01:15:22.201Z,99.99
2023-05-14T01:16:22.264Z,99.99
2023-05-14T01:17:22.118Z,99.99
2023-05-14T01:18:22.106Z,99.99
2023-05-14T01:19:22.100Z,99.99
2023-05-14T01:20:22.318Z,99.99
2023-05-14T01:21:22.107Z,99.99
2023-05-14T01:22:22.126Z,99.99
2023-05-14T01:23:22.053Z,99.99
2023-05-14T01:24:22.042Z,99.99
2023-05-14T01:25:22.108Z,99.99
2023-05-14T01:26:22.063Z,99.99
2023-05-14T01:27:22.015Z,99.99
2023-05-14T01:28:22.084Z,99.99
2023-05-14T01:29:22.022Z,99.99
2023-05-14T01:30:22.132Z,99.99
2023-05-14T01:31:21.994Z,99.99
2023-05-14T01:32:22.018Z,99.99
2023-05-14T01:33:22.004Z,99.99
2023-05-14T01:34:21.992Z,99.99
2023-05-14T01:35:21.963Z,99.99
2023-05-14T01:36:21.961Z,99.99
2023-05-14T01:37:54.814Z,99.99
2023-05-14T01:38:21.972Z,99.99
2023-05-14T01:39:21.937Z,99.99
2023-05-14T01:40:21.992Z,99.99
2023-05-14T01:41:21.933Z,99.99
2023-05-14T01:42:21.910Z,99.99
2023-05-14T01:43:21.975Z,99.99
2023-05-14T01:44:21.926Z,99.99
2023-05-14T01:45:21.890Z,99.99
2023-05-14T01:46:21.881Z,99.99
2023-05-14T01:47:21.877Z,99.99
2023-05-14T01:48:21.842Z,99.99
2023-05-14T01:49:21.888Z,99.99
2023-05-14T01:50:22.023Z,99.99
2023-05-14T01:51:21.902Z,99.99
2023-05-14T01:52:21.843Z,99.99
2023-05-14T01:53:21.816Z,99.99
2023-05-14T01:54:21.804Z,99.99
2023-05-14T01:55:21.825Z,99.99
2023-05-14T01:56:21.832Z,99.99
2023-05-14T01:57:21.816Z,99.99
2023-05-14T01:58:21.789Z,99.99
2023-05-14T01:59:21.765Z,99.99
2023-05-14T02:00:21.909Z,99.99
2023-05-14T02:01:21.793Z,99.99
2023-05-14T02:02:21.742Z,99.99
2023-05-14T02:03:21.738Z,99.99
2023-05-14T02:04:21.805Z,99.99
2023-05-14T02:05:21.773Z,99.99
2023-05-14T02:06:21.722Z,99.99
2023-05-14T02:07:21.726Z,99.99
2023-05-14T02:08:21.704Z,99.99
2023-05-14T02:09:21.709Z,99.99
2023-05-14T02:10:21.809Z,99.99
2023-05-14T02:11:21.681Z,99.99
2023-05-14T02:12:21.657Z,99.99
2023-05-14T02:13:21.674Z,99.99
2023-05-14T02:14:21.677Z,99.99
2023-05-14T02:15:21.689Z,99.99
2023-05-14T02:16:22.746Z,99.99
2023-05-14T02:17:21.707Z,99.99
2023-05-14T02:18:21.650Z,99.99
2023-05-14T02:19:21.656Z,99.99
2023-05-14T02:20:21.840Z,99.99
2023-05-14T02:21:21.660Z,99.99
2023-05-14T02:22:21.607Z,99.99
2023-05-14T02:23:31.006Z,99.99
2023-05-14T02:24:23.569Z,99.99
2023-05-14T02:25:21.686Z,99.99
2023-05-14T02:26:21.585Z,99.99
2023-05-14T02:27:21.592Z,99.99
2023-05-14T02:28:21.626Z,99.99
2023-05-14T02:29:21.550Z,99.99
2023-05-14T02:30:21.724Z,99.99
2023-05-14T02:31:22.370Z,99.99
2023-05-14T02:32:21.571Z,99.99
2023-05-14T02:33:21.686Z,99.99
2023-05-14T02:34:21.580Z,99.99
2023-05-14T02:35:21.521Z,99.99
2023-05-14T02:36:21.546Z,99.99
2023-05-14T02:37:21.526Z,99.99
2023-05-14T02:38:21.510Z,99.99
2023-05-14T02:39:21.495Z,99.99
2023-05-14T02:40:21.565Z,99.99
2023-05-14T02:41:21.500Z,99.99
2023-05-14T02:42:21.458Z,99.99
2023-05-14T02:43:21.468Z,99.99
2023-05-14T02:44:21.434Z,99.99
2023-05-14T02:45:21.434Z,99.99
2023-05-14T02:46:21.506Z,99.99
2023-05-14T02:47:21.507Z,99.99
2023-05-14T02:48:21.406Z,99.99
2023-05-14T02:49:21.961Z,99.99
2023-05-14T02:50:21.706Z,99.99
2023-05-14T02:51:21.408Z,99.99
2023-05-14T02:52:21.409Z,99.99
2023-05-14T02:53:21.360Z,99.99
2023-05-14T02:54:21.383Z,99.99
2023-05-14T02:55:21.383Z,99.99
2023-05-14T02:56:21.393Z,99.99
2023-05-14T02:57:21.969Z,99.99
2023-05-14T02:58:25.352Z,99.99
2023-05-14T02:59:22.901Z,99.99
2023-05-14T03:00:21.711Z,99.99
2023-05-14T03:01:21.394Z,99.99
2023-05-14T03:02:21.362Z,99.99
2023-05-14T03:03:21.408Z,99.99
2023-05-14T03:04:21.322Z,99.99
2023-05-14T03:05:21.340Z,99.99
2023-05-14T03:06:21.365Z,99.99
2023-05-14T03:07:21.283Z,99.99
2023-05-14T03:08:21.281Z,99.99
2023-05-14T03:09:21.297Z,99.99
2023-05-14T03:10:21.404Z,99.99
2023-05-14T03:11:21.288Z,99.99
2023-05-14T03:12:21.274Z,99.99
2023-05-14T03:13:21.267Z,99.99
2023-05-14T03:14:21.213Z,99.99
2023-05-14T03:15:21.270Z,99.99
2023-05-14T03:16:21.257Z,99.99
2023-05-14T03:17:21.300Z,99.99
2023-05-14T03:18:21.210Z,99.99
2023-05-14T03:19:21.179Z,99.99
2023-05-14T03:20:21.310Z,99.99
2023-05-14T03:21:21.200Z,99.99
2023-05-14T03:22:21.171Z,99.99
2023-05-14T03:23:21.202Z,99.99
2023-05-14T03:24:21.128Z,99.99
2023-05-14T03:25:21.168Z,99.99
2023-05-14T03:26:21.912Z,99.99
2023-05-14T03:27:21.162Z,99.99
2023-05-14T03:28:21.144Z,99.99
2023-05-14T03:29:21.112Z,99.99
2023-05-14T03:30:21.395Z,99.99
2023-05-14T03:31:21.193Z,99.99
2023-05-14T03:32:21.120Z,99.99
2023-05-14T03:33:21.078Z,99.99
2023-05-14T03:34:21.079Z,99.99
2023-05-14T03:35:21.100Z,99.99
2023-05-14T03:36:21.062Z,99.99
2023-05-14T03:37:21.060Z,99.99
2023-05-14T03:38:21.094Z,99.99
2023-05-14T03:39:21.086Z,99.99
2023-05-14T03:40:21.392Z,99.99
2023-05-14T03:41:21.036Z,99.99
2023-05-14T03:42:21.014Z,99.99
2023-05-14T03:43:20.983Z,99.99
2023-05-14T03:44:21.025Z,99.99
2023-05-14T03:45:21.000Z,99.99
2023-05-14T03:46:20.999Z,99.99
2023-05-14T03:47:20.974Z,99.99
2023-05-14T04:03:16.121Z,99.99
2023-05-14T04:04:15.945Z,99.99
2023-05-14T04:05:17.107Z,99.99
2023-05-14T04:06:17.124Z,99.99
2023-05-14T04:07:17.109Z,99.99
2023-05-14T04:08:17.072Z,99.44
2023-05-14T04:09:17.036Z,98.74
2023-05-14T04:10:17.044Z,96.48
2023-05-14T04:11:17.053Z,96.58
2023-05-14T04:12:16.998Z,96.58
2023-05-14T04:13:17.018Z,96.22
2023-05-14T04:14:17.012Z,96.42
2023-05-14T04:15:17.018Z,96.57
2023-05-14T04:16:17.101Z,97.74
2023-05-14T04:17:17.005Z,97.74
2023-05-14T04:18:17.016Z,98.16
2023-05-14T04:19:17.040Z,98.05
2023-05-14T04:20:16.963Z,98.61
2023-05-14T04:21:16.968Z,98.57
2023-05-14T04:22:17.017Z,98.71
2023-05-14T04:23:16.927Z,98.61
2023-05-14T04:24:16.963Z,99.22
2023-05-14T04:25:16.945Z,99.02
2023-05-14T04:26:16.906Z,99.02
2023-05-14T04:27:16.930Z,98.61
2023-05-14T04:28:16.916Z,99.33
2023-05-14T04:29:16.932Z,99.28
2023-05-14T04:30:16.926Z,99.12
2023-05-14T04:31:16.978Z,99.22
2023-05-14T04:32:16.876Z,99.28
2023-05-14T04:33:16.905Z,99.02
2023-05-14T04:34:16.871Z,99.08
2023-05-14T04:35:16.873Z,99.08
2023-05-14T04:36:16.831Z,99.28
2023-05-14T04:37:16.897Z,99.28
2023-05-14T04:38:16.826Z,99.28
2023-05-14T04:39:16.838Z,99.18
2023-05-14T04:40:16.875Z,98.97
2023-05-14T04:41:16.857Z,99.28
2023-05-14T04:42:16.818Z,99.08
2023-05-14T04:43:16.787Z,99.18
2023-05-14T04:44:16.781Z,99.28
2023-05-14T04:45:16.772Z,99.28
2023-05-14T04:46:16.839Z,98.87
2023-05-14T04:47:16.753Z,98.83
2023-05-14T04:48:16.747Z,98.62
2023-05-14T04:49:16.729Z,99.13
2023-05-14T04:50:16.753Z,98.52
2023-05-14T04:51:16.788Z,98.62
2023-05-14T04:52:16.698Z,98.93
2023-05-14T04:53:16.709Z,98.62
2023-05-14T04:54:16.732Z,98.68
2023-05-14T04:55:16.682Z,98.27
2023-05-14T04:56:16.775Z,98.16
2023-05-14T04:57:16.663Z,98.16
2023-05-14T04:58:16.709Z,98.16
2023-05-14T04:59:16.671Z,98.07
2023-05-14T05:00:17.646Z,98.07
2023-05-14T05:01:16.689Z,98.16
2023-05-14T05:02:17.658Z,98.07
2023-05-14T05:03:17.833Z,98.07
2023-05-14T05:04:16.748Z,97.91
2023-05-14T05:05:16.754Z,97.96
2023-05-14T05:06:16.685Z,97.55
2023-05-14T05:07:18.017Z,97.71
2023-05-14T05:08:16.580Z,97.71
2023-05-14T05:09:16.588Z,97.40
2023-05-14T05:10:16.581Z,97.61
2023-05-14T05:11:16.589Z,96.89
2023-05-14T05:12:16.556Z,97.20
2023-05-14T05:13:16.555Z,97.40
2023-05-14T05:14:16.531Z,97.30
2023-05-14T05:15:16.534Z,97.25
2023-05-14T05:16:16.549Z,97.15
2023-05-14T05:17:16.522Z,97.36
2023-05-14T05:18:16.533Z,96.84
2023-05-14T05:19:16.719Z,96.95
2023-05-14T05:20:16.503Z,96.91
2023-05-14T05:21:16.452Z,96.19
2023-05-14T05:22:16.470Z,96.08
2023-05-14T05:23:16.573Z,95.82
2023-05-14T05:24:17.140Z,96.64
2023-05-14T05:25:16.448Z,96.23
2023-05-14T05:26:16.435Z,96.49
2023-05-14T05:27:16.451Z,96.34
2023-05-14T05:28:16.456Z,95.94
2023-05-14T05:29:16.473Z,95.12
2023-05-14T05:30:16.448Z,95.32
2023-05-14T05:31:18.324Z,95.32
2023-05-14T05:32:16.393Z,95.48
2023-05-14T05:33:16.384Z,95.22
2023-05-14T05:34:16.399Z,94.67
2023-05-14T05:35:16.401Z,94.51
2023-05-14T05:36:16.353Z,94.46
2023-05-14T05:37:16.357Z,94.93
2023-05-14T05:38:16.389Z,94.21
2023-05-14T05:39:16.375Z,93.91
2023-05-14T05:40:16.385Z,94.62
2023-05-14T05:41:16.328Z,93.91
2023-05-14T05:42:16.369Z,93.25
2023-05-14T05:43:16.309Z,93.55
2023-05-14T05:44:16.306Z,94.11
2023-05-14T05:45:16.339Z,92.94
2023-05-14T05:46:16.421Z,93.25
2023-05-14T05:47:16.255Z,93.15
2023-05-14T05:48:16.259Z,92.74
2023-05-14T05:49:16.282Z,93.31
2023-05-14T05:50:16.884Z,92.96
2023-05-14T05:51:16.329Z,91.67
2023-05-14T05:52:16.226Z,92.49
2023-05-14T05:53:16.242Z,92.55
2023-05-14T05:54:16.254Z,92.20
2023-05-14T05:55:16.244Z,91.49
2023-05-14T05:56:16.217Z,91.74
2023-05-14T05:57:16.216Z,91.83
2023-05-14T05:58:16.270Z,92.04
2023-05-14T05:59:16.172Z,91.74
2023-05-14T06:00:17.189Z,91.69
2023-05-14T06:01:16.216Z,91.69
2023-05-14T06:02:16.228Z,91.79
2023-05-14T06:03:16.217Z,90.77
2023-05-14T06:04:16.171Z,91.35
2023-05-14T06:05:16.297Z,91.20
2023-05-14T06:06:17.199Z,89.57
2023-05-14T06:07:16.122Z,89.06
2023-05-14T06:08:17.144Z,88.24
2023-05-14T06:09:16.648Z,88.45
2023-05-14T06:10:16.108Z,89.36
2023-05-14T06:11:17.751Z,88.65
2023-05-14T06:12:16.098Z,88.92
2023-05-14T06:13:16.098Z,88.40
2023-05-14T06:14:16.051Z,88.67
2023-05-14T06:15:16.074Z,87.90
2023-05-14T06:16:16.074Z,87.85
2023-05-14T06:17:16.051Z,87.71
2023-05-14T06:18:16.108Z,87.67
2023-05-14T06:19:16.179Z,87.43
2023-05-14T06:20:16.002Z,85.96
2023-05-14T06:21:16.025Z,85.19
2023-05-14T06:22:16.042Z,86.37
2023-05-14T06:23:16.026Z,85.62
2023-05-14T06:24:15.997Z,83.75
2023-05-14T06:25:15.990Z,84.63
2023-05-14T06:26:15.995Z,84.38
2023-05-14T06:27:15.961Z,82.19
2023-05-14T06:28:16.751Z,82.96
2023-05-14T06:29:15.955Z,81.54
2023-05-14T06:30:15.977Z,82.15
2023-05-14T06:31:15.913Z,82.25
2023-05-14T06:32:15.984Z,82.19
2023-05-14T06:33:15.927Z,82.96
2023-05-14T06:34:15.899Z,82.52
2023-05-14T06:35:15.899Z,82.17
2023-05-14T06:36:15.870Z,81.02
2023-05-14T06:37:15.877Z,80.31
2023-05-14T06:38:16.091Z,80.68
2023-05-14T06:39:15.897Z,79.15
2023-05-14T06:40:16.662Z,77.22
2023-05-14T06:41:15.850Z,75.47
2023-05-14T06:42:15.842Z,74.80
2023-05-14T06:43:15.836Z,76.62
2023-05-14T06:44:15.833Z,78.04
2023-05-14T06:45:16.636Z,76.79
2023-05-14T06:46:15.831Z,76.55
2023-05-14T06:47:15.786Z,75.16
2023-05-14T06:48:16.657Z,75.10
2023-05-14T06:49:16.802Z,75.78
2023-05-14T06:50:15.831Z,76.04
2023-05-14T06:51:15.756Z,76.15
2023-05-14T06:52:15.766Z,76.59
2023-05-14T06:53:15.786Z,76.55
2023-05-14T06:54:15.856Z,76.12
2023-05-14T06:55:15.747Z,77.87
2023-05-14T06:56:15.752Z,77.09
2023-05-14T06:57:15.727Z,76.38
2023-05-14T06:58:15.710Z,74.26
2023-05-14T06:59:15.719Z,74.83
2023-05-14T07:00:15.843Z,73.88
2023-05-14T07:01:15.792Z,73.99
2023-05-14T07:02:15.677Z,74.56
2023-05-14T07:03:16.664Z,74.90
2023-05-14T07:04:15.726Z,76.04
2023-05-14T07:05:15.658Z,76.04
2023-05-14T07:06:15.678Z,74.05
2023-05-14T07:07:15.671Z,72.77
2023-05-14T07:08:15.668Z,70.79
2023-05-14T07:09:15.640Z,70.06
2023-05-14T07:10:15.638Z,69.12
2023-05-14T07:11:15.662Z,69.15
2023-05-14T07:12:15.671Z,70.26
2023-05-14T07:13:15.662Z,69.35
2023-05-14T07:14:15.610Z,67.25
2023-05-14T07:15:15.650Z,67.22
2023-05-14T07:16:15.613Z,65.51
2023-05-14T07:17:15.667Z,67.65
2023-05-14T07:18:15.625Z,67.05
2023-05-14T07:19:15.696Z,64.95
2023-05-14T07:20:15.626Z,62.09
2023-05-14T07:21:15.574Z,63.02
2023-05-14T07:22:15.591Z,64.15
2023-05-14T07:23:16.244Z,64.98
2023-05-14T07:24:15.552Z,65.27
2023-05-14T07:25:15.540Z,65.54
2023-05-14T07:26:15.494Z,66.44
2023-05-14T07:27:15.571Z,67.01
2023-05-14T07:28:15.562Z,67.38
2023-05-14T07:29:15.495Z,65.97
2023-05-14T07:30:15.478Z,66.38
2023-05-14T07:31:15.480Z,66.71
2023-05-14T07:32:15.835Z,63.54
2023-05-14T07:33:16.459Z,63.31
2023-05-14T07:34:15.470Z,63.75
2023-05-14T07:35:15.433Z,63.87
2023-05-14T07:36:15.460Z,65.44
2023-05-14T07:37:15.406Z,66.58
2023-05-14T07:38:15.400Z,65.37
2023-05-14T07:39:15.432Z,64.07
2023-05-14T07:40:15.388Z,63.31
2023-05-14T07:41:15.382Z,62.48
2023-05-14T07:42:27.882Z,61.72
2023-05-14T07:43:17.367Z,60.92
2023-05-14T07:44:15.379Z,61.48
2023-05-14T07:45:15.377Z,61.75
2023-05-14T07:46:15.376Z,60.95
2023-05-14T07:47:15.491Z,62.24
2023-05-14T07:48:15.451Z,62.21
2023-05-14T07:49:15.333Z,62.51
2023-05-14T07:50:15.333Z,62.57
2023-05-14T07:51:15.316Z,62.64
2023-05-14T07:52:15.300Z,62.24
2023-05-14T07:53:15.303Z,63.04
2023-05-14T07:54:15.284Z,63.23
2023-05-14T07:55:15.313Z,63.96
2023-05-14T07:56:15.286Z,65.64
2023-05-14T07:57:15.304Z,64.80
2023-05-14T07:58:15.231Z,64.67
2023-05-14T07:59:15.239Z,64.54
2023-05-14T08:00:15.240Z,63.24
2023-05-14T08:01:15.312Z,61.82
2023-05-14T08:02:15.275Z,59.49
2023-05-14T08:03:15.297Z,59.38
2023-05-14T08:04:16.302Z,61.87
2023-05-14T08:05:15.185Z,62.97
2023-05-14T08:06:15.222Z,61.82
2023-05-14T08:07:15.211Z,58.39
2023-05-14T08:08:15.171Z,60.31
2023-05-14T08:09:15.164Z,60.18
2023-05-14T08:10:15.164Z,60.42
2023-05-14T08:11:15.182Z,60.45
2023-05-14T08:12:15.155Z,59.50
2023-05-14T08:13:15.091Z,60.47
2023-05-14T08:14:15.116Z,61.77
2023-05-14T08:15:15.112Z,60.44
2023-05-14T08:16:15.154Z,59.15
2023-05-14T08:17:15.226Z,58.62
2023-05-14T08:18:15.087Z,57.76
2023-05-14T08:19:15.107Z,56.77
2023-05-14T08:20:15.087Z,57.64
2023-05-14T08:21:15.055Z,56.71
2023-05-14T08:22:15.122Z,56.48
2023-05-14T08:23:15.038Z,56.41
2023-05-14T08:24:15.068Z,56.04
2023-05-14T08:25:15.013Z,56.27
2023-05-14T08:26:15.013Z,57.37
2023-05-14T08:27:15.021Z,56.52
2023-05-14T08:28:15.028Z,60.52
2023-05-14T08:29:16.612Z,62.93
2023-05-14T08:30:15.070Z,60.29
2023-05-14T08:31:15.014Z,60.36
2023-05-14T08:32:23.249Z,62.46
2023-05-14T08:33:17.041Z,61.80
2023-05-14T08:34:14.993Z,58.91
2023-05-14T08:35:14.953Z,59.26
2023-05-14T08:36:14.965Z,58.94
2023-05-14T08:37:14.982Z,59.61
2023-05-14T08:38:14.928Z,58.55
2023-05-14T08:39:14.970Z,58.82
2023-05-14T08:40:14.945Z,57.04
2023-05-14T08:41:14.894Z,58.75
2023-05-14T08:42:14.912Z,58.30
2023-05-14T08:43:14.910Z,60.36
2023-05-14T08:44:14.941Z,61.22
2023-05-14T08:45:14.917Z,62.39
2023-05-14T08:46:14.868Z,62.96
2023-05-14T08:47:14.873Z,62.03
2023-05-14T08:48:15.039Z,62.40
2023-05-14T08:49:14.857Z,61.00
2023-05-14T08:50:14.860Z,61.13
2023-05-14T08:51:14.831Z,62.16
2023-05-14T08:52:14.823Z,62.42
2023-05-14T08:53:14.802Z,62.16
2023-05-14T08:54:14.795Z,62.46
2023-05-14T08:55:14.842Z,61.29
2023-05-14T08:56:14.797Z,62.22
2023-05-14T08:57:14.831Z,63.62
2023-05-14T08:58:14.784Z,63.32
2023-05-14T08:59:14.785Z,63.03
2023-05-14T09:00:14.787Z,62.36
2023-05-14T09:01:14.803Z,62.16
2023-05-14T09:02:14.802Z,62.46
2023-05-14T09:03:14.798Z,62.50
2023-05-14T09:04:14.807Z,61.07
2023-05-14T09:05:14.754Z,61.93
2023-05-14T09:06:14.798Z,63.29
2023-05-14T09:07:14.715Z,63.35
2023-05-14T09:08:14.725Z,64.13
2023-05-14T09:09:14.685Z,62.52
2023-05-14T09:10:14.690Z,62.19
2023-05-14T09:11:14.781Z,61.93
2023-05-14T09:12:14.791Z,61.52
2023-05-14T09:13:15.592Z,61.60
2023-05-14T09:14:14.733Z,62.33
2023-05-14T09:15:14.690Z,62.83
2023-05-14T09:16:14.671Z,61.93
2023-05-14T09:17:14.690Z,61.22
2023-05-14T09:18:14.685Z,62.26
2023-05-14T09:19:14.673Z,62.29
2023-05-14T09:20:14.615Z,62.62
2023-05-14T09:21:14.609Z,63.85
2023-05-14T09:22:14.648Z,64.49
2023-05-14T09:23:14.581Z,64.52
2023-05-14T09:24:14.596Z,64.09
2023-05-14T09:25:14.610Z,62.86
2023-05-14T09:26:14.603Z,62.27
2023-05-14T09:27:14.611Z,61.48
2023-05-14T09:28:14.603Z,60.55
2023-05-14T09:29:14.703Z,59.18
2023-05-14T09:30:14.618Z,59.44
2023-05-14T09:31:14.590Z,59.66
2023-05-14T09:32:14.539Z,60.14
2023-05-14T09:33:14.530Z,60.97
2023-05-14T09:34:14.551Z,59.98
2023-05-14T09:35:14.513Z,59.12
2023-05-14T09:36:14.480Z,58.52
2023-05-14T09:37:14.557Z,55.87
2023-05-14T09:38:14.493Z,55.41
2023-05-14T09:39:14.529Z,54.69
2023-05-14T09:40:14.540Z,55.44
2023-05-14T09:41:14.486Z,57.80
2023-05-14T09:42:14.455Z,60.51
2023-05-14T09:43:14.459Z,59.31
2023-05-14T09:44:14.468Z,59.33
2023-05-14T09:45:14.428Z,59.03
2023-05-14T09:46:14.456Z,60.53
2023-05-14T09:47:14.456Z,58.68
2023-05-14T09:48:15.276Z,58.22
2023-05-14T09:49:15.420Z,57.92
2023-05-14T09:50:14.378Z,60.16
2023-05-14T09:51:14.387Z,59.13
2023-05-14T09:52:14.392Z,59.08
2023-05-14T09:53:14.385Z,57.69
2023-05-14T09:54:14.416Z,56.87
2023-05-14T09:55:14.405Z,57.32
2023-05-14T09:56:14.349Z,56.27
2023-05-14T09:57:14.343Z,56.59
2023-05-14T09:58:14.333Z,57.69
2023-05-14T09:59:14.345Z,56.85
2023-05-14T10:00:14.352Z,58.25
2023-05-14T10:01:14.377Z,58.37
2023-05-14T10:02:14.302Z,58.20
2023-05-14T10:03:14.708Z,58.76
2023-05-14T10:04:14.339Z,60.39
2023-05-14T10:05:14.303Z,59.22
2023-05-14T10:06:14.276Z,60.55
2023-05-14T10:07:14.275Z,61.55
2023-05-14T10:08:14.266Z,61.80
2023-05-14T10:09:14.327Z,60.27
2023-05-14T10:10:14.252Z,60.44
2023-05-14T10:11:15.073Z,59.64
2023-05-14T10:12:14.218Z,59.74
2023-05-14T10:13:14.280Z,59.53
2023-05-14T10:14:14.235Z,60.06
2023-05-14T10:15:14.178Z,59.46
2023-05-14T10:16:14.201Z,60.61
2023-05-14T10:17:14.215Z,59.13
2023-05-14T10:18:14.214Z,57.93
2023-05-14T10:19:14.227Z,58.61
2023-05-14T10:20:14.169Z,58.30
2023-05-14T10:21:14.176Z,57.96
2023-05-14T10:22:14.166Z,57.70
2023-05-14T10:23:14.149Z,58.70
2023-05-14T10:24:14.129Z,57.70
2023-05-14T10:25:14.134Z,58.45
2023-05-14T10:26:14.134Z,57.78
2023-05-14T10:27:14.129Z,57.85
2023-05-14T10:28:14.100Z,57.30
2023-05-14T10:29:14.100Z,58.51
2023-05-14T10:30:14.124Z,59.79
2023-05-14T10:31:14.153Z,58.87
2023-05-14T10:32:14.088Z,57.92
2023-05-14T10:33:14.160Z,57.24
2023-05-14T10:34:14.081Z,56.24
2023-05-14T10:35:14.061Z,57.17
2023-05-14T10:36:14.082Z,57.75
2023-05-14T10:37:14.084Z,57.89
2023-05-14T10:38:14.088Z,57.22
2023-05-14T10:39:14.121Z,56.77
2023-05-14T10:40:14.058Z,56.20
2023-05-14T10:41:14.009Z,55.52
2023-05-14T10:42:14.005Z,56.62
2023-05-14T10:43:14.053Z,57.09
2023-05-14T10:44:14.003Z,56.17
2023-05-14T10:45:13.989Z,57.43
2023-05-14T10:46:14.081Z,59.56
2023-05-14T10:47:13.972Z,59.34
2023-05-14T10:48:14.073Z,60.98
2023-05-14T10:49:14.006Z,60.65
2023-05-14T10:50:13.967Z,60.78
2023-05-14T10:51:13.982Z,61.91
2023-05-14T10:52:13.937Z,61.38
2023-05-14T10:53:13.921Z,61.25
2023-05-14T10:54:13.926Z,60.42
2023-05-14T10:55:13.960Z,60.62
2023-05-14T10:56:13.904Z,59.42
2023-05-14T10:57:13.909Z,59.62
2023-05-14T10:58:13.891Z,58.99
2023-05-14T10:59:13.973Z,59.09
2023-05-14T11:00:13.968Z,59.82
2023-05-14T11:01:13.908Z,60.25
2023-05-14T11:02:13.965Z,60.58
2023-05-14T11:03:14.077Z,60.96
2023-05-14T11:04:13.880Z,60.45
2023-05-14T11:05:14.042Z,60.55
2023-05-14T11:06:13.835Z,60.62
2023-05-14T11:07:13.842Z,59.19
2023-05-14T11:08:13.840Z,59.19
2023-05-14T11:09:13.839Z,59.36
2023-05-14T11:10:13.833Z,58.30
2023-05-14T11:11:13.845Z,54.57
2023-05-14T11:12:13.760Z,55.65
2023-05-14T11:13:13.837Z,56.15
2023-05-14T11:14:13.754Z,56.67
2023-05-14T11:15:13.807Z,55.27
2023-05-14T11:16:22.692Z,55.70
2023-05-14T11:17:15.838Z,55.15
2023-05-14T11:18:13.774Z,57.07
2023-05-14T11:19:13.965Z,58.18
2023-05-14T11:20:13.770Z,56.29
2023-05-14T11:21:13.744Z,55.24
2023-05-14T11:22:13.758Z,55.94
2023-05-14T11:23:13.768Z,54.06
2023-05-14T11:24:13.704Z,53.09
2023-05-14T11:25:13.790Z,54.32
2023-05-14T11:26:13.774Z,55.15
2023-05-14T11:27:13.700Z,55.92
2023-05-14T11:28:13.697Z,54.90
2023-05-14T11:29:13.657Z,55.17
2023-05-14T11:30:13.666Z,54.74
2023-05-14T11:31:13.668Z,54.24
2023-05-14T11:32:13.667Z,54.57
2023-05-14T11:33:13.661Z,55.09
2023-05-14T11:34:13.649Z,55.94
2023-05-14T11:35:13.651Z,57.02
2023-05-14T11:36:13.613Z,56.52
2023-05-14T11:37:13.600Z,57.57
2023-05-14T11:38:13.662Z,57.87
2023-05-14T11:39:13.586Z,57.78
2023-05-14T11:40:13.576Z,58.11
2023-05-14T11:41:13.556Z,58.30
2023-05-14T11:42:13.562Z,57.70
2023-05-14T11:43:13.585Z,57.24
2023-05-14T11:44:13.579Z,57.29
2023-05-14T11:45:13.558Z,55.49
2023-05-14T11:46:13.583Z,55.59
2023-05-14T11:47:13.511Z,56.39
2023-05-14T11:48:13.607Z,57.70
2023-05-14T11:49:13.513Z,58.20
2023-05-14T11:50:13.524Z,57.78
2023-05-14T11:51:14.370Z,57.78
2023-05-14T11:52:13.501Z,56.45
2023-05-14T11:53:13.531Z,56.70
2023-05-14T11:54:13.472Z,56.60
2023-05-14T11:55:13.510Z,56.52
2023-05-14T11:56:13.456Z,56.80
2023-05-14T11:57:13.516Z,56.00
2023-05-14T11:58:13.423Z,56.80
2023-05-14T11:59:13.429Z,57.40
2023-05-14T12:00:13.516Z,56.63
2023-05-14T12:01:13.422Z,57.93
2023-05-14T12:02:13.459Z,57.83
2023-05-14T12:03:13.574Z,57.23
2023-05-14T12:04:13.447Z,56.43
2023-05-14T12:05:13.435Z,56.33
2023-05-14T12:06:13.434Z,56.93
2023-05-14T12:07:13.382Z,57.33
2023-05-14T12:08:13.385Z,58.03
2023-05-14T12:09:14.305Z,59.03
2023-05-14T12:10:13.362Z,59.13
2023-05-14T12:11:13.335Z,57.43
2023-05-14T12:12:13.351Z,56.68
2023-05-14T12:13:13.356Z,57.89
2023-05-14T12:14:13.350Z,58.09
2023-05-14T12:15:13.308Z,58.69
2023-05-14T12:16:13.396Z,57.26
2023-05-14T12:17:13.305Z,57.96
2023-05-14T12:18:23.283Z,57.96
2023-05-14T12:19:15.370Z,58.76
2023-05-14T12:20:13.281Z,58.53
2023-05-14T12:21:13.289Z,57.76
2023-05-14T12:22:13.293Z,57.86
2023-05-14T12:23:13.260Z,58.43
2023-05-14T12:24:14.266Z,57.93
2023-05-14T12:25:13.292Z,57.43
2023-05-14T12:26:13.220Z,56.60
2023-05-14T12:27:13.210Z,56.83
2023-05-14T12:28:13.242Z,57.33
2023-05-14T12:29:13.222Z,58.00
2023-05-14T12:30:21.435Z,58.13
2023-05-14T12:31:15.270Z,57.96
2023-05-14T12:32:13.213Z,59.26
2023-05-14T12:33:13.237Z,57.81
2023-05-14T12:34:13.220Z,57.81
2023-05-14T12:35:13.153Z,59.32
2023-05-14T12:36:21.859Z,58.72
2023-05-14T12:37:15.190Z,58.42
2023-05-14T12:38:13.133Z,59.62
2023-05-14T12:39:13.163Z,60.32
2023-05-14T12:40:13.237Z,58.31
2023-05-14T12:41:13.778Z,58.81
2023-05-14T12:42:13.158Z,58.84
2023-05-14T12:43:13.116Z,59.45
2023-05-14T12:44:13.125Z,59.72
2023-05-14T12:45:13.136Z,60.55
2023-05-14T12:46:13.102Z,60.88
2023-05-14T12:47:13.197Z,60.58
2023-05-14T12:48:13.099Z,62.49
2023-05-14T12:49:13.071Z,63.12
2023-05-14T12:50:13.145Z,68.31
2023-05-14T12:51:13.036Z,71.17
2023-05-14T12:53:14.051Z,76.86
2023-05-14T12:54:13.049Z,79.15
2023-05-14T12:55:13.045Z,82.22
2023-05-14T12:56:13.031Z,82.87
2023-05-14T12:57:12.990Z,84.33
2023-05-14T12:58:12.975Z,86.25
2023-05-14T12:59:12.989Z,88.11
2023-05-14T13:00:14.066Z,87.91
2023-05-14T13:01:14.050Z,88.82
2023-05-14T13:02:13.963Z,88.92
2023-05-14T13:03:12.991Z,90.75
2023-05-14T13:04:12.974Z,89.67
2023-05-14T13:05:12.984Z,90.69
2023-05-14T13:06:12.962Z,91.19
2023-05-14T13:07:12.951Z,91.25
2023-05-14T13:08:12.957Z,90.99